Time;durP1;ratioP1;P1;durP2;ratioP2;P2;SDS_P1;SDS_P2;PMS_P1;PMS_P2;Temp;Humidity;BMP_temperature;BMP_pressure;BME280_temperature;BME280_humidity;BME280_pressure;Samples;Min_cycle;Max_cycle;Signal;HPM_P1;HPM_P2
2022/12/30 00:02:09;;;;;;;16.57;10.85;;;;;;;2.62;67.74;99506.95;1845755;76;20995;-40
2022/12/30 00:04:37;;;;;;;15.55;11.05;;;;;;;2.60;67.76;99500.58;1834268;76;21549;-40
2022/12/30 00:07:03;;;;;;;17.67;11.33;;;;;;;2.60;67.77;99506.48;1838322;76;21030;-40
2022/12/30 00:09:30;;;;;;;19.17;11.48;;;;;;;2.56;67.79;99506.30;1850696;77;21246;-41
2022/12/30 00:33:06;;;;;;;19.82;11.63;;;;;;;2.55;67.80;99510.61;1844689;77;21457;-40
2022/12/30 00:34:34;;;;;;;18.60;11.85;;;;;;;2.44;68.22;99522.08;1837371;76;20961;-40
2022/12/30 00:37:01;;;;;;;;;;;;;;;2.37;68.41;99522.27;1846261;76;21506;-40
2022/12/30 00:39:28;;;;;;;17.02;11.75;;;;;;;2.30;68.50;99511.16;1843141;76;20130;-40
2022/12/30 00:44:40;;;;;;;20.45;11.88;;;;;;;2.23;68.84;99515.58;1844802;76;21020;-40
2022/12/30 00:47:06;;;;;;;17.40;11.15;;;;;;;2.22;68.89;99504.66;1845741;76;20998;-40
2022/12/30 00:57:51;;;;;;;18.75;11.93;;;;;;;2.28;69.00;99508.78;1828669;77;20972;-40
2022/12/30 01:00:18;;;;;;;23.60;12.20;;;;;;;2.24;69.09;99503.80;1838763;76;20973;-40
2022/12/30 01:02:45;;;;;;;18.55;12.00;;;;;;;2.19;69.16;99503.36;1852367;76;21239;-41
2022/12/30 01:05:11;;;;;;;19.12;12.30;;;;;;;2.17;69.26;99509.57;1844311;76;20968;-40
2022/12/30 01:07:38;;;;;;;20.65;11.65;;;;;;;2.18;69.31;99503.65;1843120;76;20940;-40
2022/12/30 01:10:07;;;;;;;17.48;11.33;;;;;;;2.18;69.32;99503.11;1844798;76;20956;-40
2022/12/30 01:12:35;;;;;;;17.85;11.45;;;;;;;2.13;69.41;99504.55;1851962;76;26602;-40
2022/12/30 01:15:01;;;;;;;17.60;11.70;;;;;;;2.17;69.36;99500.75;1830106;76;21485;-40
2022/12/30 01:17:32;;;;;;;18.10;11.57;;;;;;;2.17;69.29;99502.88;1835701;76;21273;-40
2022/12/30 01:19:59;;;;;;;18.67;12.37;;;;;;;2.17;69.25;99494.06;1836850;76;20951;-40
2022/12/30 01:22:27;;;;;;;18.40;11.73;;;;;;;2.13;69.27;99489.84;1851062;76;21133;-41
2022/12/30 01:24:53;;;;;;;17.98;11.40;;;;;;;2.10;69.35;99495.80;1833686;76;21470;-40
2022/12/30 01:27:20;;;;;;;18.35;12.10;;;;;;;2.06;69.40;99495.36;1828386;76;23142;-40
2022/12/30 01:29:47;;;;;;;19.85;12.88;;;;;;;2.03;69.47;99494.06;1838770;76;20932;-40
2022/12/30 01:32:18;;;;;;;19.23;12.23;;;;;;;2.00;69.51;99498.69;1842341;76;20991;-40
2022/12/30 01:34:45;;;;;;;20.20;12.18;;;;;;;2.01;69.50;99498.94;1831487;76;21525;-40
2022/12/30 01:37:12;;;;;;;20.12;12.18;;;;;;;2.02;69.53;99496.52;1841741;76;20924;-40
2022/12/30 01:39:38;;;;;;;20.37;11.70;;;;;;;2.04;69.63;99493.52;1841000;76;21488;-40
2022/12/30 01:42:19;;;;;;;20.30;12.03;;;;;;;2.01;69.70;99493.59;1836278;76;21507;-40
2022/12/30 01:45:12;;;;;;;22.30;12.80;;;;;;;1.98;69.79;99496.08;1842711;77;21502;-40
2022/12/30 01:48:02;;;;;;;18.40;11.50;;;;;;;1.93;69.94;99496.98;1838420;76;20978;-40
2022/12/30 01:50:50;;;;;;;21.42;12.37;;;;;;;1.90;70.09;99488.20;1828932;77;20978;-40
2022/12/30 01:53:37;;;;;;;18.82;11.48;;;;;;;1.94;70.14;99491.85;1837982;76;21263;-40
2022/12/30 01:56:34;;;;;;;17.92;12.13;;;;;;;1.94;70.18;99491.06;1836613;76;21007;-40
2022/12/30 01:59:12;;;;;;;20.30;12.00;;;;;;;1.91;70.30;99484.98;1844416;77;21019;-40
2022/12/30 02:01:39;;;;;;;18.00;11.70;;;;;;;1.92;70.39;99494.05;1848693;76;20972;-40
2022/12/30 02:04:13;;;;;;;22.55;13.00;;;;;;;1.90;70.42;99485.53;1838331;76;21054;-40
2022/12/30 02:07:17;;;;;;;17.10;11.00;;;;;;;1.96;70.38;99486.22;1835664;76;21175;-40
2022/12/30 02:09:44;;;;;;;19.05;12.03;;;;;;;2.04;70.22;99482.28;1834475;76;21865;-40
2022/12/30 02:12:11;;;;;;;18.55;12.13;;;;;;;2.06;70.18;99488.14;1828496;77;20983;-40
2022/12/30 02:14:39;;;;;;;20.77;12.75;;;;;;;2.07;70.22;99488.39;1833706;76;21007;-40
2022/12/30 02:17:35;;;;;;;19.87;13.53;;;;;;;2.09;70.14;99480.84;1844667;76;20917;-40
2022/12/30 02:20:19;;;;;;;20.90;12.58;;;;;;;2.10;70.01;99479.76;1839859;76;22028;-40
2022/12/30 02:23:20;;;;;;;21.15;13.13;;;;;;;2.07;70.14;99477.70;1851449;76;20949;-40
2022/12/30 02:26:05;;;;;;;22.50;12.95;;;;;;;2.03;70.25;99474.02;1846833;77;21012;-40
2022/12/30 02:29:21;;;;;;;18.62;12.63;;;;;;;2.03;70.34;99480.70;1841461;76;21016;-40
2022/12/30 02:32:13;;;;;;;22.75;12.82;;;;;;;2.04;70.43;99468.92;1856567;76;21005;-40
2022/12/30 02:34:55;;;;;;;21.73;13.45;;;;;;;2.05;70.61;99469.17;1841740;76;21230;-40
2022/12/30 02:37:55;;;;;;;21.27;12.33;;;;;;;2.10;70.72;99470.40;1844721;76;21098;-40
2022/12/30 02:46:36;;;;;;;19.50;12.18;;;;;;;2.15;70.95;99467.62;1831544;77;21064;-40
2022/12/30 02:49:02;;;;;;;19.75;12.93;;;;;;;2.22;70.85;99470.43;1833631;76;21241;-40
2022/12/30 02:54:15;;;;;;;20.25;12.13;;;;;;;2.28;70.78;99469.20;1835698;76;20888;-40
2022/12/30 02:56:49;;;;;;;18.75;12.70;;;;;;;2.39;70.63;99468.69;1841437;77;21666;-40
2022/12/30 03:05:51;;;;;;;21.65;12.98;;;;;;;2.55;70.07;99470.47;1799017;79;20939;-40
2022/12/30 03:08:41;;;;;;;21.57;12.23;;;;;;;2.51;70.03;99466.28;1803644;79;21014;-40
2022/12/30 03:11:15;;;;;;;20.35;12.60;;;;;;;2.48;69.98;99471.42;1840086;76;21510;-40
2022/12/30 03:14:15;;;;;;;20.92;12.55;;;;;;;2.46;70.05;99470.95;1846775;76;20996;-41
2022/12/30 03:16:51;;;;;;;17.30;12.23;;;;;;;2.50;70.05;99474.59;1836623;76;21236;-40
2022/12/30 03:19:21;;;;;;;21.20;13.10;;;;;;;2.48;70.15;99472.22;1833734;76;21050;-40
2022/12/30 03:21:49;;;;;;;18.98;12.33;;;;;;;2.48;70.24;99475.44;1844704;76;21510;-40
2022/12/30 03:27:05;;;;;;;20.75;11.97;;;;;;;2.48;70.28;99476.77;1841640;76;21055;-40
2022/12/30 03:29:49;;;;;;;17.62;11.75;;;;;;;2.53;70.19;99482.01;1828680;76;21091;-41
2022/12/30 03:32:18;;;;;;;21.70;12.33;;;;;;;2.58;70.02;99485.36;1836904;77;21564;-40
2022/12/30 03:34:46;;;;;;;18.50;12.30;;;;;;;2.61;70.04;99488.76;1837465;76;20940;-40
2022/12/30 03:37:23;;;;;;;20.48;13.05;;;;;;;2.62;69.98;99493.56;1844241;76;21506;-40
2022/12/30 03:40:11;;;;;;;19.20;12.30;;;;;;;2.62;70.01;99493.56;1836377;76;21106;-40
2022/12/30 03:42:38;;;;;;;18.62;13.38;;;;;;;2.62;70.03;99492.23;1844405;76;21904;-40
2022/12/30 03:45:06;;;;;;;17.65;12.03;;;;;;;2.62;70.09;99492.23;1814677;76;21850;-40
2022/12/30 03:47:32;;;;;;;18.07;11.85;;;;;;;2.65;70.05;99488.17;1813272;78;21056;-40
2022/12/30 03:49:59;;;;;;;22.55;13.22;;;;;;;2.68;69.99;99490.23;1801487;78;21499;-40
2022/12/30 03:52:27;;;;;;;19.67;12.25;;;;;;;2.74;69.87;99493.83;1810261;78;21052;-40
2022/12/30 03:54:54;;;;;;;21.73;13.30;;;;;;;2.75;69.84;99496.75;1808650;78;21142;-40
2022/12/30 03:57:20;;;;;;;19.87;13.00;;;;;;;2.74;69.75;99496.50;1814557;78;21509;-40
2022/12/30 03:59:47;;;;;;;19.00;12.65;;;;;;;2.74;69.81;99497.84;1799656;78;21031;-40
2022/12/30 04:02:13;;;;;;;17.67;12.35;;;;;;;2.74;69.78;99503.20;1801334;78;20980;-40
2022/12/30 04:04:40;;;;;;;18.45;12.00;;;;;;;2.74;69.76;99493.03;1805684;78;21004;-40
2022/12/30 04:07:07;;;;;;;18.60;11.93;;;;;;;2.75;69.86;99485.25;1803657;78;21206;-40
2022/12/30 04:09:34;;;;;;;20.32;12.60;;;;;;;2.80;69.72;99488.61;1807836;78;21230;-40
2022/12/30 04:12:01;;;;;;;18.75;12.78;;;;;;;2.88;69.53;99483.05;1795972;79;21019;-40
2022/12/30 04:14:28;;;;;;;18.35;12.50;;;;;;;2.89;69.47;99482.75;1800082;78;21173;-40
2022/12/30 04:16:55;;;;;;;21.97;13.30;;;;;;;2.90;69.47;99484.34;1801458;78;21114;-40
2022/12/30 04:19:21;;;;;;;21.45;12.58;;;;;;;2.90;69.43;99486.23;1816051;78;21235;-40
2022/12/30 04:21:48;;;;;;;18.87;13.25;;;;;;;2.88;69.49;99489.20;1808142;78;22770;-40
2022/12/30 04:24:15;;;;;;;21.30;14.18;;;;;;;2.85;69.53;99492.50;1808638;78;20925;-40
2022/12/30 04:26:42;;;;;;;19.70;13.15;;;;;;;2.83;69.62;99491.20;1811397;78;21016;-40
2022/12/30 04:29:08;;;;;;;18.30;11.90;;;;;;;2.84;69.58;99485.55;1797064;78;21003;-41
2022/12/30 04:31:35;;;;;;;18.60;12.60;;;;;;;2.89;69.42;99485.98;1812161;78;22111;-41
2022/12/30 04:34:02;;;;;;;24.32;13.72;;;;;;;2.89;69.50;99489.45;1803873;78;21536;-40
2022/12/30 04:36:29;;;;;;;18.35;12.65;;;;;;;2.88;69.57;99481.17;1796338;78;21070;-40
2022/12/30 04:38:55;;;;;;;19.57;12.10;;;;;;;2.86;69.60;99480.67;1803868;78;20991;-40
2022/12/30 04:41:22;;;;;;;21.00;13.22;;;;;;;2.86;69.64;99484.69;1816423;78;21020;-40
2022/12/30 04:43:49;;;;;;;19.45;12.68;;;;;;;2.86;69.57;99487.36;1800864;78;23102;-40
2022/12/30 04:46:16;;;;;;;18.10;13.00;;;;;;;2.85;69.65;99488.48;1797286;78;21062;-40
2022/12/30 04:48:43;;;;;;;19.90;12.63;;;;;;;2.84;69.62;99487.44;1796141;78;21062;-40
2022/12/30 04:51:09;;;;;;;20.55;12.68;;;;;;;2.86;69.61;99488.70;1795700;78;20880;-40
2022/12/30 04:53:36;;;;;;;17.62;12.37;;;;;;;2.91;69.47;99492.59;1803735;78;21575;-40
2022/12/30 04:56:05;;;;;;;20.00;12.00;;;;;;;2.93;69.47;99493.09;1803670;78;21129;-40
2022/12/30 04:58:31;;;;;;;17.62;12.03;;;;;;;2.94;69.46;99492.00;1801061;78;21016;-40
2022/12/30 05:00:58;;;;;;;20.62;12.47;;;;;;;2.93;69.41;99491.76;1803928;78;20955;-40
2022/12/30 05:03:25;;;;;;;19.10;12.63;;;;;;;2.91;69.43;99485.91;1812329;78;21035;-40
2022/12/30 05:05:52;;;;;;;20.32;12.68;;;;;;;2.88;69.50;99493.22;1814277;78;20983;-40
2022/12/30 05:08:18;;;;;;;20.30;12.25;;;;;;;2.86;69.52;99492.72;1799434;78;21726;-40
2022/12/30 05:10:45;;;;;;;16.27;11.93;;;;;;;2.86;69.57;99492.72;1809153;78;21506;-40
2022/12/30 05:13:12;;;;;;;19.52;12.82;;;;;;;2.90;69.52;99487.02;1803940;78;21510;-40
2022/12/30 05:15:41;;;;;;;19.67;12.45;;;;;;;2.94;69.44;99487.98;1805954;78;20907;-40
2022/12/30 05:18:10;;;;;;;21.23;13.00;;;;;;;2.92;69.52;99492.05;1796256;78;21021;-40
2022/12/30 05:20:37;;;;;;;22.15;13.03;;;;;;;2.90;69.64;99486.23;1814987;78;21616;-40
2022/12/30 05:23:03;;;;;;;21.55;13.43;;;;;;;2.88;69.65;99486.52;1806959;78;21072;-40
2022/12/30 05:28:15;;;;;;;19.27;12.05;;;;;;;2.85;69.75;99483.67;1811132;78;21184;-40
2022/12/30 05:30:42;;;;;;;17.82;11.60;;;;;;;2.81;69.98;99494.18;1808545;78;21078;-40
2022/12/30 05:33:09;;;;;;;18.20;13.10;;;;;;;2.82;69.97;99491.75;1800832;78;23147;-40
2022/12/30 05:35:35;;;;;;;21.02;13.15;;;;;;;2.86;69.93;99482.55;1795927;78;20984;-41
2022/12/30 05:38:02;;;;;;;18.60;12.35;;;;;;;2.85;69.95;99482.34;1810711;78;21070;-40
2022/12/30 05:40:29;;;;;;;19.95;13.75;;;;;;;2.86;70.05;99490.59;1803530;78;21027;-40
2022/12/30 05:42:55;;;;;;;18.12;12.93;;;;;;;2.86;70.02;99487.36;1806526;78;21492;-40
2022/12/30 05:45:22;;;;;;;23.22;14.10;;;;;;;2.86;70.00;99491.92;1819373;78;23262;-40
2022/12/30 05:47:49;;;;;;;21.95;13.85;;;;;;;2.85;70.00;99500.53;1803849;78;21015;-40
2022/12/30 05:50:17;;;;;;;20.88;13.10;;;;;;;2.82;70.11;99510.49;1803038;78;21541;-40
2022/12/30 05:52:44;;;;;;;21.93;12.93;;;;;;;2.84;70.14;99512.33;1803229;78;20920;-40
2022/12/30 05:55:10;;;;;;;19.05;12.55;;;;;;;2.91;70.04;99512.67;1811300;78;21015;-40
2022/12/30 05:57:38;;;;;;;23.22;13.35;;;;;;;2.94;70.00;99509.95;1801037;78;21480;-40
2022/12/30 06:00:08;;;;;;;21.62;13.50;;;;;;;2.93;70.04;99507.82;1810647;78;21113;-40
2022/12/30 06:02:35;;;;;;;19.12;13.15;;;;;;;2.94;69.98;99514.77;1812961;78;21569;-41
2022/12/30 06:05:03;;;;;;;19.52;13.03;;;;;;;2.93;69.97;99518.53;1805955;78;21035;-40
2022/12/30 06:07:30;;;;;;;23.77;13.83;;;;;;;2.90;70.02;99515.68;1811442;78;21537;-40
2022/12/30 06:09:58;;;;;;;18.25;12.47;;;;;;;2.89;70.08;99522.92;1809210;78;21177;-40
2022/12/30 06:12:25;;;;;;;20.17;12.35;;;;;;;2.93;70.02;99523.09;1809667;78;20956;-40
2022/12/30 06:14:51;;;;;;;20.92;13.03;;;;;;;3.00;69.90;99536.86;1811120;78;21513;-40
2022/12/30 06:17:18;;;;;;;18.60;12.30;;;;;;;3.06;69.74;99527.59;1804509;78;20951;-40
2022/12/30 06:19:44;;;;;;;19.95;12.80;;;;;;;3.08;69.70;99525.41;1816029;78;20958;-40
2022/12/30 06:22:11;;;;;;;22.60;14.07;;;;;;;3.10;69.76;99529.13;1808130;78;21126;-40
2022/12/30 06:24:38;;;;;;;22.60;13.60;;;;;;;3.13;69.67;99533.86;1804118;78;22092;-40
2022/12/30 06:27:04;;;;;;;21.25;14.33;;;;;;;3.13;69.65;99528.50;1809535;78;20912;-40
2022/12/30 06:29:31;;;;;;;23.62;14.00;;;;;;;3.12;69.59;99528.25;1805802;78;21078;-40
2022/12/30 06:31:58;;;;;;;19.27;12.68;;;;;;;3.10;69.60;99537.16;1800420;78;21039;-40
2022/12/30 06:34:25;;;;;;;21.75;14.33;;;;;;;3.10;69.64;99541.95;1803791;78;22005;-40
2022/12/30 06:36:52;;;;;;;21.40;13.58;;;;;;;3.17;69.51;99540.98;1796091;78;21528;-40
2022/12/30 06:39:18;;;;;;;21.82;13.35;;;;;;;3.21;69.39;99526.41;1803562;78;20955;-40
2022/12/30 06:41:45;;;;;;;18.55;13.35;;;;;;;3.21;69.44;99538.47;1803694;78;21043;-41
2022/12/30 06:44:12;;;;;;;21.77;13.18;;;;;;;3.21;69.45;99532.56;1805005;78;21492;-40
2022/12/30 06:46:38;;;;;;;18.60;13.22;;;;;;;3.24;69.41;99542.69;1816002;78;21194;-40
2022/12/30 06:49:05;;;;;;;23.67;14.07;;;;;;;3.22;69.36;99539.52;1816825;78;21507;-40
2022/12/30 06:51:32;;;;;;;20.95;13.35;;;;;;;3.20;69.39;99540.36;1803840;78;20992;-40
2022/12/30 06:53:59;;;;;;;22.22;13.05;;;;;;;3.17;69.41;99550.36;1808532;78;21556;-40
2022/12/30 06:56:25;;;;;;;20.02;12.85;;;;;;;3.15;69.48;99555.79;1808764;78;20989;-40
2022/12/30 06:58:52;;;;;;;20.35;13.90;;;;;;;3.17;69.42;99558.39;1796143;78;21583;-40
2022/12/30 07:01:19;;;;;;;19.07;13.10;;;;;;;3.20;69.50;99559.11;1796060;78;20987;-40
2022/12/30 07:03:45;;;;;;;21.17;13.98;;;;;;;3.22;69.55;99560.16;1803099;78;20968;-40
2022/12/30 07:06:12;;;;;;;21.93;13.93;;;;;;;3.22;69.50;99554.80;1796499;78;21879;-40
2022/12/30 07:08:40;;;;;;;20.37;13.53;;;;;;;3.20;69.43;99548.39;1811905;78;21014;-41
2022/12/30 07:11:07;;;;;;;22.52;14.25;;;;;;;3.18;69.54;99539.89;1801218;78;21133;-40
2022/12/30 07:13:33;;;;;;;21.85;13.85;;;;;;;3.19;69.62;99544.70;1811057;78;20987;-40
2022/12/30 07:16:00;;;;;;;20.17;12.98;;;;;;;3.21;69.45;99534.45;1803603;78;21074;-40
2022/12/30 07:18:26;;;;;;;22.67;13.38;;;;;;;3.29;69.30;99537.17;1811234;78;21014;-40
2022/12/30 07:20:53;;;;;;;18.20;13.35;;;;;;;3.36;69.04;99534.07;1804513;78;21054;-40
2022/12/30 07:23:20;;;;;;;19.60;13.40;;;;;;;3.37;68.90;99530.30;1813407;78;21225;-40
2022/12/30 07:25:48;;;;;;;22.37;14.83;;;;;;;3.38;68.88;99533.23;1808755;78;20888;-40
2022/12/30 07:28:14;;;;;;;22.15;14.47;;;;;;;3.38;68.72;99534.56;1810954;78;21008;-40
2022/12/30 07:30:41;;;;;;;22.42;14.05;;;;;;;3.36;68.67;99535.41;1805266;78;21586;-40
2022/12/30 07:33:09;;;;;;;22.00;14.40;;;;;;;3.33;68.75;99538.17;1804193;78;21075;-40
2022/12/30 07:35:35;;;;;;;21.55;13.95;;;;;;;3.32;68.85;99533.11;1811702;78;21126;-40
2022/12/30 07:38:02;;;;;;;20.72;13.25;;;;;;;3.35;68.82;99529.80;1811155;78;21141;-40
2022/12/30 07:40:29;;;;;;;21.73;13.72;;;;;;;3.45;68.68;99530.88;1800339;78;21071;-40
2022/12/30 07:42:56;;;;;;;23.52;13.98;;;;;;;3.50;68.50;99536.91;1813768;78;21514;-40
2022/12/30 07:45:24;;;;;;;23.02;14.15;;;;;;;3.58;68.48;99556.03;1802780;78;21022;-40
2022/12/30 07:47:51;;;;;;;22.20;14.90;;;;;;;3.61;68.44;99560.22;1808606;78;21146;-40
2022/12/30 07:50:17;;;;;;;24.57;14.78;;;;;;;3.67;68.42;99564.36;1809748;78;20955;-40
2022/12/30 07:52:44;;;;;;;24.15;15.32;;;;;;;3.72;68.35;99569.59;1819171;78;21005;-40
2022/12/30 07:55:11;;;;;;;23.02;14.50;;;;;;;3.74;68.13;99557.98;1817781;78;21550;-40
2022/12/30 07:57:38;;;;;;;21.12;14.47;;;;;;;3.74;67.99;99571.94;1810498;78;20980;-40
2022/12/30 08:00:09;;;;;;;22.60;14.58;;;;;;;3.78;67.92;99566.98;1802494;78;21073;-40
2022/12/30 08:02:38;;;;;;;20.77;14.18;;;;;;;3.85;67.60;99562.53;1807176;78;21006;-40
2022/12/30 08:05:07;;;;;;;21.12;14.83;;;;;;;3.88;67.55;99576.65;1805545;78;21056;-40
2022/12/30 08:07:35;;;;;;;24.50;16.02;;;;;;;3.91;67.67;99574.16;1803255;78;20966;-40
2022/12/30 08:10:02;;;;;;;23.20;14.70;;;;;;;3.98;67.36;99574.24;1813552;78;21030;-40
2022/12/30 08:12:29;;;;;;;23.60;14.53;;;;;;;4.02;67.42;99569.86;1800967;78;21128;-40
2022/12/30 08:15:01;;;;;;;21.35;14.43;;;;;;;4.10;67.49;99575.80;1793866;78;20952;-40
2022/12/30 08:17:28;;;;;;;21.90;14.68;;;;;;;4.19;67.28;99572.03;1815210;78;20917;-40
2022/12/30 08:19:55;;;;;;;20.77;14.18;;;;;;;4.28;67.03;99578.77;1800195;78;21505;-40
2022/12/30 08:22:21;;;;;;;23.60;14.90;;;;;;;4.35;66.96;99585.27;1808646;78;21011;-40
2022/12/30 08:24:50;;;;;;;22.40;13.85;;;;;;;4.44;66.70;99590.66;1800954;78;21801;-40
2022/12/30 08:27:17;;;;;;;24.20;13.83;;;;;;;4.56;66.52;99589.47;1808471;78;21074;-40
2022/12/30 08:29:44;;;;;;;21.42;14.20;;;;;;;4.72;65.97;99587.13;1811129;78;21026;-41
2022/12/30 08:32:11;;;;;;;21.52;14.07;;;;;;;4.85;65.39;99586.73;1802866;78;20940;-40
2022/12/30 08:34:38;;;;;;;25.10;15.50;;;;;;;4.92;65.09;99587.06;1805073;78;21020;-40
2022/12/30 08:37:05;;;;;;;23.98;14.68;;;;;;;4.95;64.88;99584.52;1802144;78;21086;-40
2022/12/30 08:39:32;;;;;;;23.22;14.95;;;;;;;4.98;64.71;99591.97;1796056;78;20994;-40
2022/12/30 08:41:59;;;;;;;25.45;15.25;;;;;;;4.98;64.64;99588.48;1798465;78;21047;-40
2022/12/30 08:44:26;;;;;;;24.05;15.00;;;;;;;4.99;64.81;99591.39;1808763;78;21639;-40
2022/12/30 08:46:53;;;;;;;21.45;13.85;;;;;;;5.00;64.88;99591.63;1813412;78;20955;-40
2022/12/30 08:49:20;;;;;;;21.02;14.00;;;;;;;4.99;64.84;99599.45;1805086;78;21191;-40
2022/12/30 08:51:47;;;;;;;21.77;13.80;;;;;;;4.99;65.09;99592.73;1803805;78;20991;-40
2022/12/30 08:54:14;;;;;;;21.37;14.63;;;;;;;5.01;64.93;99597.25;1808752;78;21110;-40
2022/12/30 08:56:41;;;;;;;22.42;13.85;;;;;;;5.01;64.84;99587.84;1818299;78;20976;-40
2022/12/30 08:59:09;;;;;;;20.75;14.55;;;;;;;5.04;64.86;99588.00;1801091;78;20983;-41
2022/12/30 09:01:38;;;;;;;22.62;14.65;;;;;;;5.06;64.76;99599.78;1803644;78;21104;-40
2022/12/30 09:04:06;;;;;;;21.60;14.10;;;;;;;5.04;64.70;99604.12;1819669;78;21032;-41
2022/12/30 09:06:35;;;;;;;25.37;14.40;;;;;;;5.02;64.72;99601.52;1807023;78;20979;-40
2022/12/30 09:09:04;;;;;;;22.35;14.43;;;;;;;5.03;64.78;99597.73;1803829;78;21000;-40
2022/12/30 09:11:32;;;;;;;22.87;14.70;;;;;;;5.08;64.71;99601.61;1805129;78;21024;-40
2022/12/30 09:14:02;;;;;;;20.10;14.10;;;;;;;5.21;64.70;99595.27;1807138;78;21957;-40
2022/12/30 09:16:29;;;;;;;20.77;14.80;;;;;;;5.42;64.53;99593.48;1803254;78;21097;-41
2022/12/30 09:18:56;;;;;;;21.97;14.83;;;;;;;5.65;64.17;99580.08;1810695;78;21455;-40
2022/12/30 09:21:23;;;;;;;22.48;14.93;;;;;;;5.89;63.20;99574.73;1796076;78;21102;-40
2022/12/30 09:23:51;;;;;;;21.62;15.03;;;;;;;6.07;62.74;99570.84;1803732;78;20951;-41
2022/12/30 09:26:21;;;;;;;19.87;13.80;;;;;;;6.25;62.34;99566.15;1808476;78;23156;-40
2022/12/30 09:28:48;;;;;;;;;;;;;;;6.36;62.08;99568.16;1798662;78;21536;-41
2022/12/30 09:31:14;;;;;;;21.93;14.00;;;;;;;6.45;61.99;99563.50;1811820;78;20536;-40
2022/12/30 09:33:41;;;;;;;20.50;14.58;;;;;;;6.43;62.00;99563.05;1800135;78;20955;-40
2022/12/30 09:36:08;;;;;;;20.65;13.75;;;;;;;6.47;61.85;99561.28;1803192;78;21046;-40
2022/12/30 09:38:35;;;;;;;20.97;14.18;;;;;;;6.49;62.01;99560.38;1801167;78;21297;-40
2022/12/30 09:41:08;;;;;;;24.45;14.45;;;;;;;6.47;61.98;99555.89;1808693;78;21090;-40
2022/12/30 09:43:57;;;;;;;22.52;14.40;;;;;;;6.44;61.94;99560.56;1812546;78;21007;-41
2022/12/30 09:46:46;;;;;;;21.05;14.80;;;;;;;6.35;61.92;99557.14;1815856;78;23025;-41
2022/12/30 09:49:27;;;;;;;22.20;14.35;;;;;;;6.22;61.95;99558.17;1800194;78;20921;-40
2022/12/30 09:52:13;;;;;;;20.52;13.58;;;;;;;6.08;62.15;99553.59;1815969;78;21951;-40
2022/12/30 09:54:44;;;;;;;20.80;13.22;;;;;;;6.02;62.42;99552.98;1812543;78;20992;-40
2022/12/30 10:00:02;;;;;;;23.90;13.88;;;;;;;6.08;62.45;99548.99;1796236;78;21067;-40
2022/12/30 10:03:02;;;;;;;18.85;13.30;;;;;;;6.09;62.60;99540.36;1793560;78;20987;-40
2022/12/30 10:05:46;;;;;;;23.90;13.62;;;;;;;6.15;62.55;99539.62;1819332;78;21127;-40
2022/12/30 10:08:43;;;;;;;22.30;14.83;;;;;;;6.19;62.44;99543.24;1809571;78;20890;-40
2022/12/30 10:11:27;;;;;;;20.35;13.48;;;;;;;6.19;62.30;99541.34;1786587;78;20983;-40
2022/12/30 10:14:19;;;;;;;23.12;14.93;;;;;;;6.16;62.65;99537.94;1801156;78;20947;-40
2022/12/30 10:17:04;;;;;;;20.30;14.15;;;;;;;6.17;62.86;99536.83;1796216;78;21524;-40
2022/12/30 10:19:59;;;;;;;19.75;13.43;;;;;;;6.21;62.87;99539.09;1795967;78;21139;-40
2022/12/30 10:22:38;;;;;;;20.37;13.68;;;;;;;6.26;62.68;99540.81;1805228;78;22062;-40
2022/12/30 10:25:40;;;;;;;22.10;14.35;;;;;;;6.29;62.64;99534.23;1795442;78;20955;-40
2022/12/30 10:28:08;;;;;;;18.50;13.10;;;;;;;6.35;62.83;99529.42;1803408;78;21570;-40
2022/12/30 10:30:39;;;;;;;20.90;13.80;;;;;;;6.37;62.76;99528.55;1800007;78;21110;-40
2022/12/30 10:33:10;;;;;;;18.67;13.55;;;;;;;6.39;62.76;99529.03;1799071;78;21211;-41
2022/12/30 10:35:38;;;;;;;21.05;14.38;;;;;;;6.43;62.73;99530.73;1802668;78;21003;-40
2022/12/30 10:38:14;;;;;;;20.43;13.68;;;;;;;6.47;62.65;99534.34;1806203;78;21019;-40
2022/12/30 10:41:00;;;;;;;19.62;13.35;;;;;;;6.55;62.46;99525.96;1808114;78;21091;-40
2022/12/30 10:43:54;;;;;;;19.27;13.68;;;;;;;6.65;62.13;99527.47;1799529;78;21189;-40
2022/12/30 10:47:06;;;;;;;19.10;13.65;;;;;;;6.64;62.10;99525.34;1805904;78;21098;-41
2022/12/30 10:49:52;;;;;;;22.17;14.90;;;;;;;6.64;62.16;99529.93;1782992;79;21748;-40
2022/12/30 10:52:19;;;;;;;19.82;13.65;;;;;;;6.59;62.22;99528.78;1803962;78;20995;-40
2022/12/30 10:54:46;;;;;;;18.55;13.90;;;;;;;6.59;62.29;99526.09;1811529;78;21018;-40
2022/12/30 10:57:32;;;;;;;18.85;13.28;;;;;;;6.59;62.24;99522.84;1813868;78;21026;-40
2022/12/30 10:59:59;;;;;;;19.15;12.95;;;;;;;6.59;62.42;99524.73;1808521;78;21136;-40
2022/12/30 11:02:31;;;;;;;20.82;14.30;;;;;;;6.58;62.49;99517.80;1807844;78;20976;-40
2022/12/30 11:05:00;;;;;;;21.33;13.90;;;;;;;6.59;62.46;99524.73;1808811;78;20932;-41
2022/12/30 11:07:26;;;;;;;19.50;13.13;;;;;;;6.58;62.53;99523.19;1784240;78;21014;-40
2022/12/30 11:09:53;;;;;;;19.17;12.88;;;;;;;6.59;62.66;99527.44;1793207;78;20983;-40
2022/12/30 11:15:13;;;;;;;18.30;12.88;;;;;;;6.62;62.55;99514.67;1802761;78;21506;-40
2022/12/30 11:17:53;;;;;;;22.35;14.23;;;;;;;6.57;62.75;99517.01;1812694;78;21056;-41
2022/12/30 11:20:38;;;;;;;;;;;;;;;6.54;62.78;99511.70;1807905;78;21262;-40
2022/12/30 11:23:35;;;;;;;20.05;13.38;;;;;;;6.56;62.70;99512.73;1779208;78;20165;-40
2022/12/30 11:26:06;;;;;;;19.12;13.48;;;;;;;6.55;62.78;99513.28;1800274;78;21865;-40
2022/12/30 11:28:40;;;;;;;19.60;13.25;;;;;;;6.61;62.64;99516.58;1809482;78;20975;-40
2022/12/30 11:31:10;;;;;;;23.67;14.47;;;;;;;6.61;62.59;99521.17;1812601;78;21046;-40
2022/12/30 11:33:39;;;;;;;18.70;13.25;;;;;;;6.58;62.35;99509.16;1808520;78;21550;-40
2022/12/30 11:36:28;;;;;;;22.52;13.72;;;;;;;6.54;62.53;99506.31;1807116;78;21537;-40
2022/12/30 11:38:57;;;;;;;15.80;11.18;;;;;;;6.51;62.74;99494.86;1814464;78;21298;-40
2022/12/30 11:41:28;;;;;;;21.70;13.37;;;;;;;6.48;62.83;99488.80;1781098;78;21481;-41
2022/12/30 11:45:18;;;;;;;19.23;13.60;;;;;;;6.51;63.19;99489.48;1778084;78;22626;-40
2022/12/30 11:47:45;;;;;;;19.87;13.00;;;;;;;6.48;63.19;99501.47;1755370;81;21028;-40
2022/12/30 11:50:19;;;;;;;20.62;14.20;;;;;;;6.54;63.27;99504.17;1755929;81;21136;-40
2022/12/30 11:52:57;;;;;;;20.15;13.43;;;;;;;6.59;63.31;99508.02;1756024;81;21493;-40
2022/12/30 11:55:24;;;;;;;19.30;13.55;;;;;;;6.62;63.30;99510.63;1754783;81;20987;-40
2022/12/30 11:57:52;;;;;;;22.02;13.78;;;;;;;6.63;63.45;99505.48;1756028;81;20980;-40
2022/12/30 12:00:25;;;;;;;20.57;13.60;;;;;;;6.70;63.29;99502.47;1755952;81;20932;-40
2022/12/30 12:03:13;;;;;;;19.30;13.90;;;;;;;6.81;63.04;99504.21;1753887;81;21152;-40
2022/12/30 12:05:43;;;;;;;22.73;15.00;;;;;;;6.89;62.68;99503.34;1756032;81;20923;-41
2022/12/30 12:08:33;;;;;;;14.80;10.80;;;;;;;6.91;62.67;99506.50;1756425;81;21521;-41
2022/12/30 12:11:04;;;;;;;21.25;13.83;;;;;;;6.97;62.69;99509.23;1755907;81;20936;-41
2022/12/30 12:14:03;;;;;;;22.37;14.33;;;;;;;6.99;62.51;99509.66;1756259;81;20968;-41
2022/12/30 12:16:38;;;;;;;22.05;14.73;;;;;;;6.98;62.63;99512.13;1748409;81;21316;-41
2022/12/30 12:19:16;;;;;;;23.22;15.15;;;;;;;6.97;62.73;99517.31;1756134;81;20955;-41
2022/12/30 12:21:42;;;;;;;24.00;15.30;;;;;;;6.95;62.62;99520.88;1741249;81;21552;-41
2022/12/30 12:24:29;;;;;;;24.23;15.55;;;;;;;6.90;62.77;99522.44;1755848;81;21019;-41
2022/12/30 12:27:13;;;;;;;23.75;15.25;;;;;;;6.87;62.84;99519.06;1755051;81;21087;-41
2022/12/30 12:29:39;;;;;;;25.68;14.87;;;;;;;6.83;62.91;99511.39;1716139;81;21040;-41
2022/12/30 12:32:42;;;;;;;22.25;14.53;;;;;;;6.77;63.07;99513.52;1755933;81;21096;-41
2022/12/30 12:35:39;;;;;;;25.57;15.65;;;;;;;6.72;63.14;99518.31;1755916;81;20936;-41
2022/12/30 12:38:37;;;;;;;23.38;14.60;;;;;;;6.74;63.22;99516.06;1749314;81;21220;-41
2022/12/30 12:41:27;;;;;;;20.45;13.45;;;;;;;6.82;63.08;99513.87;1755565;81;21534;-41
2022/12/30 12:44:06;;;;;;;;;;;;;;;6.83;62.99;99520.27;1757994;81;23119;-41
2022/12/30 12:46:48;;;;;;;23.20;14.13;;;;;;;6.84;62.72;99521.84;1762175;81;20197;-41
2022/12/30 12:49:44;;;;;;;19.02;13.75;;;;;;;6.75;62.84;99525.73;1762196;81;21541;-41